createdAt,value
2022-10-07T00:01:14.983Z,25.60
2022-10-07T00:03:43.526Z,25.60
2022-10-07T00:06:16.514Z,25.70
2022-10-07T00:08:46.554Z,25.70
2022-10-07T00:11:19.094Z,25.70
2022-10-07T00:13:48.546Z,25.80
2022-10-07T00:16:18.466Z,25.80
2022-10-07T00:18:47.161Z,25.80
2022-10-07T00:21:16.640Z,25.80
2022-10-07T00:23:45.916Z,25.90
2022-10-07T00:26:20.386Z,25.90
2022-10-07T00:28:49.010Z,26.00
2022-10-07T00:31:19.268Z,26.00
2022-10-07T00:33:48.122Z,26.00
2022-10-07T00:36:19.930Z,26.10
2022-10-07T00:38:52.552Z,26.10
2022-10-07T00:41:22.853Z,26.10
2022-10-07T00:43:51.387Z,26.20
2022-10-07T00:46:20.043Z,26.20
2022-10-07T00:48:48.809Z,26.30
2022-10-07T00:51:17.955Z,26.30
2022-10-07T00:53:49.671Z,26.30
2022-10-07T00:56:19.101Z,26.40
2022-10-07T00:58:49.128Z,26.50
2022-10-07T01:01:19.456Z,26.50
2022-10-07T01:03:50.543Z,26.60
2022-10-07T01:06:19.163Z,26.60
2022-10-07T01:08:49.017Z,26.70
2022-10-07T01:11:22.763Z,26.80
2022-10-07T01:14:09.703Z,26.90
2022-10-07T01:16:48.474Z,26.90
2022-10-07T01:19:17.097Z,27.00
2022-10-07T01:21:54.680Z,27.00
2022-10-07T01:24:33.266Z,27.10
2022-10-07T01:27:11.139Z,27.10
2022-10-07T01:29:54.760Z,27.20
2022-10-07T01:32:26.569Z,27.20
2022-10-07T01:34:56.003Z,27.20
2022-10-07T01:37:26.355Z,27.30
2022-10-07T01:39:57.076Z,27.30
2022-10-07T01:42:27.452Z,27.40
2022-10-07T01:44:58.160Z,27.40
2022-10-07T01:47:27.769Z,27.50
2022-10-07T01:49:56.314Z,27.50
2022-10-07T01:52:34.902Z,27.50
2022-10-07T01:55:06.447Z,27.60
2022-10-07T01:57:44.411Z,27.60
2022-10-07T02:00:13.613Z,27.70
2022-10-07T02:02:45.174Z,27.70
2022-10-07T02:05:33.453Z,27.80
2022-10-07T02:08:13.961Z,27.80
2022-10-07T02:11:00.537Z,27.90
2022-10-07T02:13:36.136Z,28.00
2022-10-07T02:16:12.774Z,27.90
2022-10-07T02:18:45.024Z,28.00
2022-10-07T02:21:16.973Z,28.00
2022-10-07T02:23:47.022Z,28.10
2022-10-07T02:26:16.934Z,28.10
2022-10-07T02:28:46.689Z,28.10
2022-10-07T02:31:19.280Z,28.10
2022-10-07T02:33:48.514Z,28.20
2022-10-07T02:36:21.281Z,28.20
2022-10-07T02:38:50.767Z,28.30
2022-10-07T02:41:41.476Z,28.20
2022-10-07T02:44:28.480Z,28.30
2022-10-07T02:46:57.069Z,28.30
2022-10-07T02:49:26.242Z,28.30
2022-10-07T02:51:59.902Z,28.30
2022-10-07T02:54:36.631Z,28.30
2022-10-07T02:57:06.423Z,28.20
2022-10-07T02:59:35.361Z,28.20
2022-10-07T03:02:05.263Z,28.30
2022-10-07T03:04:33.929Z,28.30
2022-10-07T03:07:03.287Z,28.40
2022-10-07T03:09:32.432Z,28.50
2022-10-07T03:12:01.045Z,28.60
2022-10-07T03:14:29.708Z,28.70
2022-10-07T03:17:07.136Z,28.70
2022-10-07T03:19:35.744Z,28.70
2022-10-07T03:22:11.424Z,28.80
2022-10-07T03:24:43.783Z,28.80
2022-10-07T03:27:12.425Z,28.90
2022-10-07T03:29:41.016Z,28.90
2022-10-07T03:32:09.575Z,28.90
2022-10-07T03:34:38.824Z,28.90
2022-10-07T03:37:07.389Z,29.00
2022-10-07T03:39:36.207Z,29.10
2022-10-07T03:42:05.714Z,29.10
2022-10-07T03:44:34.394Z,29.10
2022-10-07T03:47:06.613Z,29.10
2022-10-07T03:49:39.317Z,29.10
2022-10-07T03:52:07.940Z,29.20
2022-10-07T03:54:36.529Z,29.20
2022-10-07T03:57:27.591Z,29.30
2022-10-07T03:59:56.154Z,29.30
2022-10-07T04:02:24.788Z,29.30
2022-10-07T04:04:55.185Z,29.20
2022-10-07T04:07:23.913Z,29.20
2022-10-07T04:09:54.893Z,29.20
2022-10-07T04:15:05.753Z,29.10
2022-10-07T04:17:34.313Z,29.10
2022-10-07T04:20:02.870Z,29.00
2022-10-07T04:22:33.048Z,28.90
2022-10-07T04:25:20.061Z,28.90
2022-10-07T04:27:55.026Z,28.80
2022-10-07T04:30:24.416Z,28.80
2022-10-07T04:32:53.295Z,28.70
2022-10-07T04:35:23.364Z,28.70
2022-10-07T04:37:52.518Z,28.60
2022-10-07T04:40:21.671Z,28.60
2022-10-07T04:43:08.676Z,28.60
2022-10-07T04:45:37.939Z,28.60
2022-10-07T04:48:09.733Z,28.60
2022-10-07T04:50:39.726Z,28.70
2022-10-07T04:53:08.883Z,28.80
2022-10-07T04:55:41.241Z,28.90
2022-10-07T04:58:09.926Z,28.90
2022-10-07T05:01:04.089Z,29.00
2022-10-07T05:03:32.656Z,29.00
2022-10-07T05:06:06.022Z,29.00
2022-10-07T05:08:34.871Z,29.00
2022-10-07T05:11:04.289Z,29.00
2022-10-07T05:13:33.979Z,29.00
2022-10-07T05:16:03.662Z,29.10
2022-10-07T05:18:33.937Z,29.10
2022-10-07T05:21:06.017Z,29.20
2022-10-07T05:23:37.014Z,29.20
2022-10-07T05:26:09.113Z,29.20
2022-10-07T05:28:38.418Z,29.20
2022-10-07T05:31:11.601Z,29.20
2022-10-07T05:33:40.745Z,29.20
2022-10-07T05:36:10.729Z,29.30
2022-10-07T05:38:39.512Z,29.30
2022-10-07T05:41:09.197Z,29.40
2022-10-07T05:43:40.877Z,29.50
2022-10-07T05:46:11.868Z,29.60
2022-10-07T05:48:41.281Z,29.60
2022-10-07T05:51:09.946Z,29.60
2022-10-07T05:53:42.296Z,29.70
2022-10-07T05:56:12.464Z,29.70
2022-10-07T05:58:41.251Z,29.70
2022-10-07T06:01:14.377Z,29.80
2022-10-07T06:03:43.700Z,29.80
2022-10-07T06:06:12.332Z,29.80
2022-10-07T06:08:40.913Z,29.70
2022-10-07T06:11:30.766Z,29.70
2022-10-07T06:14:02.668Z,29.70
2022-10-07T06:16:31.364Z,29.70
2022-10-07T06:19:00.994Z,29.70
2022-10-07T06:21:32.387Z,29.70
2022-10-07T06:24:00.961Z,29.70
2022-10-07T06:26:29.546Z,29.70
2022-10-07T06:28:58.090Z,29.70
2022-10-07T06:31:26.970Z,29.60
2022-10-07T06:33:55.711Z,29.60
2022-10-07T06:36:24.763Z,29.60
2022-10-07T06:38:54.326Z,29.60
2022-10-07T06:41:24.045Z,29.60
2022-10-07T06:43:56.685Z,29.60
2022-10-07T06:46:25.542Z,29.60
2022-10-07T06:48:54.163Z,29.60
2022-10-07T06:51:23.225Z,29.70
2022-10-07T06:53:55.809Z,29.70
2022-10-07T06:56:24.771Z,29.70
2022-10-07T06:58:53.398Z,29.70
2022-10-07T07:01:22.423Z,29.70
2022-10-07T07:03:51.866Z,29.70
2022-10-07T07:06:20.508Z,29.60
2022-10-07T07:08:51.361Z,29.60
2022-10-07T07:11:39.035Z,29.70
2022-10-07T07:14:09.164Z,29.70
2022-10-07T07:16:38.183Z,29.70
2022-10-07T07:19:09.997Z,29.60
2022-10-07T07:22:11.211Z,29.70
2022-10-07T07:25:09.212Z,29.70
2022-10-07T07:27:38.458Z,29.70
2022-10-07T07:30:07.357Z,29.70
2022-10-07T07:32:35.932Z,29.70
2022-10-07T07:35:05.647Z,29.70
2022-10-07T07:37:35.391Z,29.70
2022-10-07T07:40:04.028Z,29.70
2022-10-07T07:46:48.880Z,29.60
2022-10-07T07:49:17.522Z,29.70
2022-10-07T07:51:46.780Z,29.70
2022-10-07T07:54:15.655Z,29.70
2022-10-07T07:56:44.554Z,29.70
2022-10-07T07:59:13.155Z,29.70
2022-10-07T08:01:42.235Z,29.60
2022-10-07T08:04:11.297Z,29.60
2022-10-07T08:06:39.872Z,29.60
2022-10-07T08:09:15.998Z,29.70
2022-10-07T08:11:46.504Z,29.60
2022-10-07T08:14:15.696Z,29.70
2022-10-07T08:16:48.504Z,29.60
2022-10-07T08:19:17.173Z,29.60
2022-10-07T08:21:45.788Z,29.60
2022-10-07T08:24:15.213Z,29.60
2022-10-07T08:26:43.839Z,29.60
2022-10-07T08:29:12.561Z,29.50
2022-10-07T08:31:43.205Z,29.50
2022-10-07T08:34:12.767Z,29.40
2022-10-07T08:36:41.564Z,29.40
2022-10-07T08:39:11.297Z,29.40
2022-10-07T08:41:45.828Z,29.40
2022-10-07T08:44:20.184Z,29.40
2022-10-07T08:47:04.430Z,29.40
2022-10-07T08:49:37.871Z,29.40
2022-10-07T08:52:24.517Z,29.50
2022-10-07T08:54:53.097Z,29.50
2022-10-07T08:57:40.329Z,29.50
2022-10-07T09:00:11.714Z,29.50
2022-10-07T09:02:51.846Z,29.60
2022-10-07T09:05:24.038Z,29.60
2022-10-07T09:07:58.888Z,29.60
2022-10-07T09:10:27.425Z,29.60
2022-10-07T09:13:02.154Z,29.60
2022-10-07T09:15:39.763Z,29.50
2022-10-07T09:18:17.191Z,29.50
2022-10-07T09:20:48.502Z,29.50
2022-10-07T09:23:17.289Z,29.50
2022-10-07T09:25:45.988Z,29.30
2022-10-07T09:28:16.225Z,29.00
2022-10-07T09:30:45.370Z,28.90
2022-10-07T09:33:17.890Z,28.70
2022-10-07T09:35:57.439Z,28.50
2022-10-07T09:38:32.196Z,28.40
2022-10-07T09:41:18.696Z,28.30
2022-10-07T09:44:05.458Z,28.20
2022-10-07T09:46:34.084Z,28.20
2022-10-07T09:49:06.159Z,28.10
2022-10-07T09:51:36.471Z,28.10
2022-10-07T09:54:06.756Z,28.10
2022-10-07T09:56:43.057Z,28.10
2022-10-07T09:59:29.909Z,28.10
2022-10-07T10:01:58.491Z,28.10
2022-10-07T10:04:32.662Z,28.10
2022-10-07T10:07:08.521Z,28.10
2022-10-07T10:09:37.176Z,28.10
2022-10-07T10:12:12.151Z,28.00
2022-10-07T10:14:51.881Z,28.10
2022-10-07T10:17:24.610Z,28.00
2022-10-07T10:19:53.181Z,28.10
2022-10-07T10:22:28.096Z,28.10
2022-10-07T10:25:15.508Z,28.10
2022-10-07T10:27:51.828Z,28.10
2022-10-07T10:30:22.331Z,28.10
2022-10-07T10:33:09.126Z,28.10
2022-10-07T10:35:43.037Z,28.10
2022-10-07T10:38:29.907Z,28.10
2022-10-07T10:41:16.655Z,28.10
2022-10-07T10:43:55.818Z,28.10
2022-10-07T10:46:46.317Z,28.10
2022-10-07T10:49:32.659Z,28.10
2022-10-07T10:52:13.491Z,28.10
2022-10-07T10:54:45.773Z,28.10
2022-10-07T10:57:25.110Z,28.00
2022-10-07T10:59:59.528Z,28.00
2022-10-07T11:02:40.350Z,28.00
2022-10-07T11:05:23.175Z,27.90
2022-10-07T11:07:51.707Z,27.90
2022-10-07T11:10:23.378Z,27.90
2022-10-07T11:12:57.766Z,27.80
2022-10-07T11:15:26.526Z,27.80
2022-10-07T11:17:56.201Z,27.70
2022-10-07T11:20:26.437Z,27.70
2022-10-07T11:22:58.598Z,27.70
2022-10-07T11:25:30.818Z,27.60
2022-10-07T11:28:03.283Z,27.70
2022-10-07T11:30:36.104Z,27.60
2022-10-07T11:33:07.534Z,27.70
2022-10-07T11:35:48.626Z,27.70
2022-10-07T11:38:24.375Z,27.60
2022-10-07T11:40:54.678Z,27.60
2022-10-07T11:43:29.264Z,27.50
2022-10-07T11:46:06.775Z,27.50
2022-10-07T11:48:47.332Z,27.50
2022-10-07T11:51:23.172Z,27.50
2022-10-07T11:53:53.604Z,27.50
2022-10-07T11:56:27.364Z,27.50
2022-10-07T11:59:02.944Z,27.50
2022-10-07T12:01:34.513Z,27.50
2022-10-07T12:04:24.754Z,27.50
2022-10-07T12:07:11.956Z,27.50
2022-10-07T12:09:56.020Z,27.50
2022-10-07T12:12:25.154Z,27.50
2022-10-07T12:15:02.127Z,27.50
2022-10-07T12:17:31.654Z,27.50
2022-10-07T12:20:18.698Z,27.50
2022-10-07T12:22:47.639Z,27.50
2022-10-07T12:25:33.429Z,27.50
2022-10-07T12:28:02.181Z,27.50
2022-10-07T12:30:38.155Z,27.50
2022-10-07T12:33:17.346Z,27.50
2022-10-07T12:35:50.021Z,27.40
2022-10-07T12:38:20.030Z,27.40
2022-10-07T12:41:06.822Z,27.30
2022-10-07T12:43:38.247Z,27.30
2022-10-07T12:46:07.944Z,27.30
2022-10-07T12:48:39.117Z,27.20
2022-10-07T12:51:15.633Z,27.10
2022-10-07T12:53:44.438Z,27.10
2022-10-07T12:56:19.169Z,26.90
2022-10-07T12:59:06.027Z,26.80
2022-10-07T13:01:48.233Z,26.60
2022-10-07T13:04:33.647Z,26.40
2022-10-07T13:07:19.424Z,26.30
2022-10-07T13:09:48.007Z,26.30
2022-10-07T13:12:16.564Z,26.30
2022-10-07T13:15:04.271Z,26.30
2022-10-07T13:17:50.934Z,26.20
2022-10-07T13:20:27.208Z,26.20
2022-10-07T13:22:56.496Z,26.10
2022-10-07T13:25:25.168Z,26.10
2022-10-07T13:27:58.696Z,26.10
2022-10-07T13:30:43.407Z,26.20
2022-10-07T13:33:18.417Z,26.20
2022-10-07T13:35:47.019Z,26.30
2022-10-07T13:38:22.630Z,26.30
2022-10-07T13:40:58.380Z,26.30
2022-10-07T13:43:29.023Z,26.30
2022-10-07T13:45:58.578Z,26.30
2022-10-07T13:48:28.709Z,26.30
2022-10-07T13:50:58.648Z,26.30
2022-10-07T13:53:35.515Z,26.40
2022-10-07T13:56:08.957Z,26.30
2022-10-07T13:58:38.534Z,26.30
2022-10-07T14:01:07.590Z,26.40
2022-10-07T14:03:41.506Z,26.40
2022-10-07T14:06:36.348Z,26.40
2022-10-07T14:09:05.005Z,26.30
2022-10-07T14:11:33.733Z,26.40
2022-10-07T14:14:05.741Z,26.40
2022-10-07T14:16:37.845Z,26.40
2022-10-07T14:19:07.081Z,26.40
2022-10-07T14:21:42.046Z,26.40
2022-10-07T14:24:11.858Z,26.40
2022-10-07T14:26:47.050Z,26.30
2022-10-07T14:29:34.028Z,26.30
2022-10-07T14:32:29.682Z,26.30
2022-10-07T14:35:20.983Z,26.30
2022-10-07T14:37:50.610Z,26.30
2022-10-07T14:40:23.701Z,26.30
2022-10-07T14:42:55.233Z,26.30
2022-10-07T14:45:24.795Z,26.30
2022-10-07T14:47:53.639Z,26.30
2022-10-07T14:50:22.873Z,26.30
2022-10-07T14:52:52.836Z,26.30
2022-10-07T14:55:27.498Z,26.30
2022-10-07T14:57:56.448Z,26.30
2022-10-07T15:00:26.565Z,26.30
2022-10-07T15:02:55.866Z,26.30
2022-10-07T15:05:24.653Z,26.30
2022-10-07T15:07:53.523Z,26.30
2022-10-07T15:10:26.731Z,26.30
2022-10-07T15:12:55.681Z,26.30
2022-10-07T15:15:24.368Z,26.30
2022-10-07T15:17:52.966Z,26.30
2022-10-07T15:20:22.468Z,26.30
2022-10-07T15:22:51.929Z,26.30
2022-10-07T15:25:21.576Z,26.30
2022-10-07T15:27:50.298Z,26.30
2022-10-07T15:30:19.697Z,26.30
2022-10-07T15:32:48.610Z,26.30
2022-10-07T15:35:17.431Z,26.30
2022-10-07T15:37:47.040Z,26.30
2022-10-07T15:40:16.041Z,26.30
2022-10-07T15:42:45.628Z,26.30
2022-10-07T15:45:14.477Z,26.30
2022-10-07T15:47:43.094Z,26.30
2022-10-07T15:50:11.838Z,26.30
2022-10-07T15:52:40.503Z,26.30
2022-10-07T15:55:10.387Z,26.30
2022-10-07T15:57:39.026Z,26.30
2022-10-07T16:00:07.863Z,26.30
2022-10-07T16:02:37.370Z,26.20
2022-10-07T16:05:08.345Z,26.20
2022-10-07T16:07:37.003Z,26.20
2022-10-07T16:10:09.502Z,26.10
2022-10-07T16:12:40.651Z,26.10
2022-10-07T16:15:09.341Z,26.10
2022-10-07T16:17:40.842Z,26.10
2022-10-07T16:20:11.516Z,26.10
2022-10-07T16:22:40.320Z,26.10
2022-10-07T16:25:09.032Z,26.00
2022-10-07T16:27:55.546Z,26.00
2022-10-07T16:30:42.246Z,26.00
2022-10-07T16:33:10.852Z,26.00
2022-10-07T16:35:39.408Z,26.00
2022-10-07T16:38:08.649Z,26.00
2022-10-07T16:40:37.229Z,25.90
2022-10-07T16:43:07.544Z,25.90
2022-10-07T16:45:36.024Z,25.80
2022-10-07T16:48:04.639Z,25.80
2022-10-07T16:50:33.152Z,25.80
2022-10-07T16:53:02.425Z,25.70
2022-10-07T16:55:30.956Z,25.70
2022-10-07T16:57:59.609Z,25.70
2022-10-07T17:00:28.367Z,25.70
2022-10-07T17:02:56.884Z,25.80
2022-10-07T17:05:27.728Z,25.80
2022-10-07T17:07:56.285Z,25.80
2022-10-07T17:10:24.869Z,25.80
2022-10-07T17:12:53.345Z,25.80
2022-10-07T17:15:21.884Z,25.90
2022-10-07T17:17:53.488Z,25.90
2022-10-07T17:20:22.064Z,25.90
2022-10-07T17:22:50.594Z,25.90
2022-10-07T17:25:19.161Z,25.90
2022-10-07T17:27:48.071Z,25.90
2022-10-07T17:30:17.371Z,25.90
2022-10-07T17:32:45.948Z,25.90
2022-10-07T17:35:14.564Z,25.90
2022-10-07T17:37:43.341Z,25.90
2022-10-07T17:40:12.360Z,26.00
2022-10-07T17:42:40.921Z,26.00
2022-10-07T17:45:11.553Z,26.00
2022-10-07T17:47:40.053Z,25.90
2022-10-07T17:50:08.825Z,25.90
2022-10-07T17:52:37.406Z,25.90
2022-10-07T17:55:07.375Z,25.90
2022-10-07T17:57:35.899Z,25.90
2022-10-07T18:00:06.380Z,25.90
2022-10-07T18:02:35.292Z,26.00
2022-10-07T18:05:03.858Z,26.00
2022-10-07T18:07:32.376Z,26.00
2022-10-07T18:10:00.923Z,26.00
2022-10-07T18:12:47.644Z,26.00
2022-10-07T18:15:21.997Z,26.00
2022-10-07T18:17:54.424Z,26.00
2022-10-07T18:20:24.288Z,26.00
2022-10-07T18:22:59.502Z,25.90
2022-10-07T18:25:28.068Z,25.90
2022-10-07T18:27:56.578Z,25.90
2022-10-07T18:30:25.069Z,25.90
2022-10-07T18:32:53.958Z,25.90
2022-10-07T18:35:22.502Z,25.90
2022-10-07T18:37:52.692Z,25.90
2022-10-07T18:40:21.506Z,25.90
2022-10-07T18:42:50.016Z,25.90
2022-10-07T18:45:18.616Z,25.90
2022-10-07T18:47:47.467Z,25.80
2022-10-07T18:50:16.332Z,25.90
2022-10-07T18:52:45.072Z,25.80
2022-10-07T18:55:13.691Z,25.80
2022-10-07T18:57:42.184Z,25.90
2022-10-07T19:00:10.990Z,25.90
2022-10-07T19:02:39.577Z,25.90
2022-10-07T19:05:08.239Z,25.90
2022-10-07T19:07:36.748Z,25.90
2022-10-07T19:10:05.375Z,25.90
2022-10-07T19:12:52.279Z,25.90
2022-10-07T19:15:21.071Z,25.90
2022-10-07T19:17:49.812Z,25.90
2022-10-07T19:20:19.257Z,25.90
2022-10-07T19:22:48.049Z,25.80
2022-10-07T19:25:34.776Z,25.80
2022-10-07T19:28:03.361Z,25.80
2022-10-07T19:30:31.880Z,25.70
2022-10-07T19:33:00.408Z,25.70
2022-10-07T19:35:30.077Z,25.70
2022-10-07T19:37:58.592Z,25.70
2022-10-07T19:40:27.172Z,25.70
2022-10-07T19:42:55.959Z,25.60
2022-10-07T19:45:24.732Z,25.60
2022-10-07T19:47:54.861Z,25.50
2022-10-07T19:50:24.226Z,25.50
2022-10-07T19:52:54.488Z,25.50
2022-10-07T19:55:23.244Z,25.50
2022-10-07T19:57:55.693Z,25.50
2022-10-07T20:00:25.780Z,25.50
2022-10-07T20:02:58.276Z,25.50
2022-10-07T20:05:29.593Z,25.60
2022-10-07T20:07:59.050Z,25.50
2022-10-07T20:10:28.337Z,25.50
2022-10-07T20:12:57.784Z,25.40
2022-10-07T20:15:26.338Z,25.40
2022-10-07T20:17:55.900Z,25.30
2022-10-07T20:20:25.539Z,25.30
2022-10-07T20:22:54.268Z,25.30
2022-10-07T20:25:22.933Z,25.30
2022-10-07T20:27:51.485Z,25.30
2022-10-07T20:30:20.028Z,25.40
2022-10-07T20:32:48.993Z,25.40
2022-10-07T20:35:17.826Z,25.40
2022-10-07T20:37:46.427Z,25.40
2022-10-07T20:40:33.058Z,25.50
2022-10-07T20:43:02.177Z,25.40
2022-10-07T20:45:30.709Z,25.40
2022-10-07T20:48:00.748Z,25.40
2022-10-07T20:50:29.387Z,25.40
2022-10-07T20:52:58.089Z,25.40
2022-10-07T20:55:26.696Z,25.40
2022-10-07T20:57:55.685Z,25.40
2022-10-07T21:00:24.155Z,25.40
2022-10-07T21:02:52.767Z,25.40
2022-10-07T21:05:21.317Z,25.40
2022-10-07T21:07:54.358Z,25.50
2022-10-07T21:10:23.357Z,25.50
2022-10-07T21:12:51.886Z,25.50
2022-10-07T21:15:22.927Z,25.50
2022-10-07T21:17:51.430Z,25.50
2022-10-07T21:20:19.928Z,25.50
2022-10-07T21:22:49.653Z,25.50
2022-10-07T21:25:19.351Z,25.50
2022-10-07T21:27:47.879Z,25.50
2022-10-07T21:30:16.545Z,25.50
2022-10-07T21:32:45.375Z,25.50
2022-10-07T21:35:14.119Z,25.50
2022-10-07T21:37:43.609Z,25.50
2022-10-07T21:40:12.189Z,25.50
2022-10-07T21:42:40.677Z,25.50
2022-10-07T21:45:09.593Z,25.50
2022-10-07T21:47:38.349Z,25.60
2022-10-07T21:50:07.273Z,25.60
2022-10-07T21:52:35.865Z,25.60
2022-10-07T21:55:04.420Z,25.70
2022-10-07T21:57:33.015Z,25.70
2022-10-07T22:00:01.597Z,25.70
2022-10-07T22:02:30.390Z,25.70
2022-10-07T22:04:58.977Z,25.70
2022-10-07T22:07:47.585Z,25.70
2022-10-07T22:10:16.163Z,25.60
2022-10-07T22:12:45.800Z,25.60
2022-10-07T22:15:14.551Z,25.60
2022-10-07T22:17:43.089Z,25.50
2022-10-07T22:20:11.687Z,25.50
2022-10-07T22:22:40.289Z,25.40
2022-10-07T22:25:09.512Z,25.40
2022-10-07T22:27:38.033Z,25.30
2022-10-07T22:30:06.889Z,25.30
2022-10-07T22:32:35.431Z,25.30
2022-10-07T22:35:22.160Z,25.30
2022-10-07T22:37:50.668Z,25.30
2022-10-07T22:40:19.265Z,25.30
2022-10-07T22:42:48.218Z,25.30
2022-10-07T22:45:18.273Z,25.40
2022-10-07T22:47:47.018Z,25.40
2022-10-07T22:50:17.367Z,25.40
2022-10-07T22:52:47.173Z,25.40
2022-10-07T22:55:19.244Z,25.40
2022-10-07T22:57:47.844Z,25.40
2022-10-07T23:00:16.783Z,25.40
2022-10-07T23:02:46.002Z,25.50
2022-10-07T23:05:14.800Z,25.50
2022-10-07T23:07:43.315Z,25.50
2022-10-07T23:10:11.849Z,25.50
2022-10-07T23:12:40.403Z,25.50
2022-10-07T23:15:09.329Z,25.50
2022-10-07T23:17:37.869Z,25.50
2022-10-07T23:20:06.618Z,25.50
2022-10-07T23:22:38.665Z,25.50
2022-10-07T23:25:07.460Z,25.50
2022-10-07T23:27:37.484Z,25.50
2022-10-07T23:30:06.752Z,25.50
2022-10-07T23:32:35.232Z,25.50
2022-10-07T23:35:03.759Z,25.60
2022-10-07T23:37:32.310Z,25.60
2022-10-07T23:40:00.820Z,25.50
2022-10-07T23:42:30.464Z,25.60
2022-10-07T23:45:02.664Z,25.60
2022-10-07T23:47:31.229Z,25.60
2022-10-07T23:49:59.805Z,25.60
2022-10-07T23:52:28.573Z,25.60
2022-10-07T23:54:57.098Z,25.70
2022-10-07T23:57:25.590Z,25.70
2022-10-07T23:59:54.260Z,25.70
